sensor_id;sensor_type;location;lat;lon;timestamp;temperature;humidity
2955;DHT22;1487;51.470;6.938;2023-08-17T00:01:44;17.00;99.90
2955;DHT22;1487;51.470;6.938;2023-08-17T00:04:11;17.00;99.90
2955;DHT22;1487;51.470;6.938;2023-08-17T00:06:38;17.00;99.90
2955;DHT22;1487;51.470;6.938;2023-08-17T00:09:05;17.00;99.90
2955;DHT22;1487;51.470;6.938;2023-08-17T00:11:32;17.00;99.90
2955;DHT22;1487;51.470;6.938;2023-08-17T00:14:01;16.90;99.90
2955;DHT22;1487;51.470;6.938;2023-08-17T00:16:28;16.90;99.90
2955;DHT22;1487;51.470;6.938;2023-08-17T00:18:55;17.00;99.90
2955;DHT22;1487;51.470;6.938;2023-08-17T00:21:22;17.00;99.90
2955;DHT22;1487;51.470;6.938;2023-08-17T00:23:48;17.00;99.90
2955;DHT22;1487;51.470;6.938;2023-08-17T00:26:15;17.00;99.90
2955;DHT22;1487;51.470;6.938;2023-08-17T00:28:42;17.10;99.90
2955;DHT22;1487;51.470;6.938;2023-08-17T00:31:11;17.10;99.90
2955;DHT22;1487;51.470;6.938;2023-08-17T00:33:37;17.10;99.90
2955;DHT22;1487;51.470;6.938;2023-08-17T00:36:04;17.10;99.90
2955;DHT22;1487;51.470;6.938;2023-08-17T00:38:31;17.10;99.90
2955;DHT22;1487;51.470;6.938;2023-08-17T00:40:58;17.00;99.90
2955;DHT22;1487;51.470;6.938;2023-08-17T00:43:25;17.10;99.90
2955;DHT22;1487;51.470;6.938;2023-08-17T00:45:52;17.10;99.90
2955;DHT22;1487;51.470;6.938;2023-08-17T00:48:21;17.10;99.90
2955;DHT22;1487;51.470;6.938;2023-08-17T00:50:49;17.00;99.90
2955;DHT22;1487;51.470;6.938;2023-08-17T00:53:17;17.00;99.90
2955;DHT22;1487;51.470;6.938;2023-08-17T00:55:45;16.90;99.90
2955;DHT22;1487;51.470;6.938;2023-08-17T00:58:12;16.90;99.90
2955;DHT22;1487;51.470;6.938;2023-08-17T01:00:39;16.90;99.90
2955;DHT22;1487;51.470;6.938;2023-08-17T01:03:06;16.90;99.90
2955;DHT22;1487;51.470;6.938;2023-08-17T01:05:34;16.90;99.90
2955;DHT22;1487;51.470;6.938;2023-08-17T01:08:02;16.90;99.90
2955;DHT22;1487;51.470;6.938;2023-08-17T01:10:33;16.80;99.90
2955;DHT22;1487;51.470;6.938;2023-08-17T01:13:11;16.80;99.90
2955;DHT22;1487;51.470;6.938;2023-08-17T01:15:42;16.80;99.90
2955;DHT22;1487;51.470;6.938;2023-08-17T01:18:17;16.80;99.90
2955;DHT22;1487;51.470;6.938;2023-08-17T01:20:46;16.80;99.90
2955;DHT22;1487;51.470;6.938;2023-08-17T01:23:15;16.80;99.90
2955;DHT22;1487;51.470;6.938;2023-08-17T01:25:42;16.80;99.90
2955;DHT22;1487;51.470;6.938;2023-08-17T01:28:08;16.90;99.90
2955;DHT22;1487;51.470;6.938;2023-08-17T01:30:40;16.90;99.90
2955;DHT22;1487;51.470;6.938;2023-08-17T01:33:11;16.90;99.90
2955;DHT22;1487;51.470;6.938;2023-08-17T01:35:46;16.90;99.90
2955;DHT22;1487;51.470;6.938;2023-08-17T01:38:18;17.00;99.90
2955;DHT22;1487;51.470;6.938;2023-08-17T01:40:45;16.90;99.90
2955;DHT22;1487;51.470;6.938;2023-08-17T01:43:15;16.90;99.90
2955;DHT22;1487;51.470;6.938;2023-08-17T01:45:42;16.90;99.90
2955;DHT22;1487;51.470;6.938;2023-08-17T01:48:09;17.00;99.90
2955;DHT22;1487;51.470;6.938;2023-08-17T01:50:36;17.00;99.90
2955;DHT22;1487;51.470;6.938;2023-08-17T01:53:03;17.00;99.90
2955;DHT22;1487;51.470;6.938;2023-08-17T01:55:31;16.90;99.90
2955;DHT22;1487;51.470;6.938;2023-08-17T01:58:00;16.80;99.90
2955;DHT22;1487;51.470;6.938;2023-08-17T02:00:27;16.80;99.90
2955;DHT22;1487;51.470;6.938;2023-08-17T02:02:54;16.80;99.90
2955;DHT22;1487;51.470;6.938;2023-08-17T02:05:21;16.80;99.90
2955;DHT22;1487;51.470;6.938;2023-08-17T02:07:48;16.80;99.90
2955;DHT22;1487;51.470;6.938;2023-08-17T02:10:15;16.90;99.90
2955;DHT22;1487;51.470;6.938;2023-08-17T02:12:43;16.90;99.90
2955;DHT22;1487;51.470;6.938;2023-08-17T02:15:10;16.90;99.90
2955;DHT22;1487;51.470;6.938;2023-08-17T02:17:36;16.90;99.90
2955;DHT22;1487;51.470;6.938;2023-08-17T02:20:04;16.90;99.90
2955;DHT22;1487;51.470;6.938;2023-08-17T02:22:31;16.90;99.90
2955;DHT22;1487;51.470;6.938;2023-08-17T02:24:58;16.90;99.90
2955;DHT22;1487;51.470;6.938;2023-08-17T02:27:25;16.90;99.90
2955;DHT22;1487;51.470;6.938;2023-08-17T02:29:53;16.90;99.90
2955;DHT22;1487;51.470;6.938;2023-08-17T02:32:20;16.90;99.90
2955;DHT22;1487;51.470;6.938;2023-08-17T02:34:47;16.90;99.90
2955;DHT22;1487;51.470;6.938;2023-08-17T02:37:14;16.90;99.90
2955;DHT22;1487;51.470;6.938;2023-08-17T02:39:41;16.90;99.90
2955;DHT22;1487;51.470;6.938;2023-08-17T02:42:07;16.80;99.90
2955;DHT22;1487;51.470;6.938;2023-08-17T02:44:34;16.70;99.90
2955;DHT22;1487;51.470;6.938;2023-08-17T02:47:02;16.70;99.90
2955;DHT22;1487;51.470;6.938;2023-08-17T02:49:29;16.70;99.90
2955;DHT22;1487;51.470;6.938;2023-08-17T02:51:56;16.70;99.90
2955;DHT22;1487;51.470;6.938;2023-08-17T02:54:23;16.60;99.90
2955;DHT22;1487;51.470;6.938;2023-08-17T02:56:50;16.60;99.90
2955;DHT22;1487;51.470;6.938;2023-08-17T02:59:16;16.60;99.90
2955;DHT22;1487;51.470;6.938;2023-08-17T03:01:45;16.60;99.90
2955;DHT22;1487;51.470;6.938;2023-08-17T03:04:13;16.60;99.90
2955;DHT22;1487;51.470;6.938;2023-08-17T03:09:46;16.60;99.90
2955;DHT22;1487;51.470;6.938;2023-08-17T03:12:13;16.60;99.90
2955;DHT22;1487;51.470;6.938;2023-08-17T03:14:39;16.60;99.90
2955;DHT22;1487;51.470;6.938;2023-08-17T03:17:06;16.50;99.90
2955;DHT22;1487;51.470;6.938;2023-08-17T03:19:34;16.50;99.90
2955;DHT22;1487;51.470;6.938;2023-08-17T03:22:01;16.60;99.90
2955;DHT22;1487;51.470;6.938;2023-08-17T03:24:28;16.50;99.90
2955;DHT22;1487;51.470;6.938;2023-08-17T03:26:54;16.50;99.90
2955;DHT22;1487;51.470;6.938;2023-08-17T03:29:21;16.50;99.90
2955;DHT22;1487;51.470;6.938;2023-08-17T03:31:48;16.50;99.90
2955;DHT22;1487;51.470;6.938;2023-08-17T03:34:15;16.50;99.90
2955;DHT22;1487;51.470;6.938;2023-08-17T03:36:43;16.50;99.90
2955;DHT22;1487;51.470;6.938;2023-08-17T03:39:10;16.50;99.90
2955;DHT22;1487;51.470;6.938;2023-08-17T03:41:37;16.50;99.90
2955;DHT22;1487;51.470;6.938;2023-08-17T03:44:04;16.50;99.90
2955;DHT22;1487;51.470;6.938;2023-08-17T03:46:32;16.50;99.90
2955;DHT22;1487;51.470;6.938;2023-08-17T03:48:59;16.60;99.90
2955;DHT22;1487;51.470;6.938;2023-08-17T03:51:26;16.60;99.90
2955;DHT22;1487;51.470;6.938;2023-08-17T03:53:54;16.60;99.90
2955;DHT22;1487;51.470;6.938;2023-08-17T03:56:20;16.50;99.90
2955;DHT22;1487;51.470;6.938;2023-08-17T03:58:47;16.50;99.90
2955;DHT22;1487;51.470;6.938;2023-08-17T04:01:14;16.50;99.90
2955;DHT22;1487;51.470;6.938;2023-08-17T04:03:41;16.50;99.90
2955;DHT22;1487;51.470;6.938;2023-08-17T04:06:08;16.50;99.90
2955;DHT22;1487;51.470;6.938;2023-08-17T04:08:36;16.50;99.90
2955;DHT22;1487;51.470;6.938;2023-08-17T04:11:04;16.40;99.90
2955;DHT22;1487;51.470;6.938;2023-08-17T04:13:32;16.40;99.90
2955;DHT22;1487;51.470;6.938;2023-08-17T04:15:59;16.40;99.90
2955;DHT22;1487;51.470;6.938;2023-08-17T04:18:25;16.30;99.90
2955;DHT22;1487;51.470;6.938;2023-08-17T04:20:52;16.30;99.90
2955;DHT22;1487;51.470;6.938;2023-08-17T04:23:19;16.30;99.90
2955;DHT22;1487;51.470;6.938;2023-08-17T04:25:46;16.30;99.90
2955;DHT22;1487;51.470;6.938;2023-08-17T04:28:15;16.40;99.90
2955;DHT22;1487;51.470;6.938;2023-08-17T04:30:42;16.40;99.90
2955;DHT22;1487;51.470;6.938;2023-08-17T04:33:08;16.40;99.90
2955;DHT22;1487;51.470;6.938;2023-08-17T04:35:35;16.40;99.90
2955;DHT22;1487;51.470;6.938;2023-08-17T04:38:02;16.40;99.90
2955;DHT22;1487;51.470;6.938;2023-08-17T04:40:29;16.30;99.90
2955;DHT22;1487;51.470;6.938;2023-08-17T04:42:56;16.30;99.90
2955;DHT22;1487;51.470;6.938;2023-08-17T04:45:24;16.30;99.90
2955;DHT22;1487;51.470;6.938;2023-08-17T04:47:51;16.30;99.90
2955;DHT22;1487;51.470;6.938;2023-08-17T04:50:18;16.30;99.90
2955;DHT22;1487;51.470;6.938;2023-08-17T04:52:45;16.30;99.90
2955;DHT22;1487;51.470;6.938;2023-08-17T04:57:38;16.40;99.90
2955;DHT22;1487;51.470;6.938;2023-08-17T05:00:06;16.40;99.90
2955;DHT22;1487;51.470;6.938;2023-08-17T05:02:36;16.50;99.90
2955;DHT22;1487;51.470;6.938;2023-08-17T05:05:04;16.50;99.90
2955;DHT22;1487;51.470;6.938;2023-08-17T05:07:31;16.60;99.90
2955;DHT22;1487;51.470;6.938;2023-08-17T05:09:58;16.60;99.90
2955;DHT22;1487;51.470;6.938;2023-08-17T05:12:24;16.70;99.90
2955;DHT22;1487;51.470;6.938;2023-08-17T05:14:51;16.70;99.90
2955;DHT22;1487;51.470;6.938;2023-08-17T05:17:18;16.70;99.90
2955;DHT22;1487;51.470;6.938;2023-08-17T05:19:46;16.80;99.90
2955;DHT22;1487;51.470;6.938;2023-08-17T05:22:13;16.80;99.90
2955;DHT22;1487;51.470;6.938;2023-08-17T05:24:40;16.90;99.90
2955;DHT22;1487;51.470;6.938;2023-08-17T05:27:07;16.90;99.90
2955;DHT22;1487;51.470;6.938;2023-08-17T05:29:34;16.90;99.90
2955;DHT22;1487;51.470;6.938;2023-08-17T05:32:00;17.00;99.90
2955;DHT22;1487;51.470;6.938;2023-08-17T05:34:27;17.10;99.90
2955;DHT22;1487;51.470;6.938;2023-08-17T05:36:55;17.10;99.90
2955;DHT22;1487;51.470;6.938;2023-08-17T05:39:22;17.10;99.90
2955;DHT22;1487;51.470;6.938;2023-08-17T05:41:49;17.20;99.90
2955;DHT22;1487;51.470;6.938;2023-08-17T05:44:16;17.10;99.90
2955;DHT22;1487;51.470;6.938;2023-08-17T05:46:43;17.10;99.90
2955;DHT22;1487;51.470;6.938;2023-08-17T05:49:09;17.10;99.90
2955;DHT22;1487;51.470;6.938;2023-08-17T05:51:36;17.20;99.90
2955;DHT22;1487;51.470;6.938;2023-08-17T05:54:04;17.10;99.90
2955;DHT22;1487;51.470;6.938;2023-08-17T05:56:32;17.20;99.90
2955;DHT22;1487;51.470;6.938;2023-08-17T05:58:59;17.20;99.90
2955;DHT22;1487;51.470;6.938;2023-08-17T06:01:26;17.20;99.90
2955;DHT22;1487;51.470;6.938;2023-08-17T06:03:53;17.20;99.90
2955;DHT22;1487;51.470;6.938;2023-08-17T06:06:20;17.20;99.90
2955;DHT22;1487;51.470;6.938;2023-08-17T06:08:47;17.20;99.90
2955;DHT22;1487;51.470;6.938;2023-08-17T06:11:15;17.30;99.90
2955;DHT22;1487;51.470;6.938;2023-08-17T06:13:41;17.30;99.90
2955;DHT22;1487;51.470;6.938;2023-08-17T06:16:08;17.30;99.90
2955;DHT22;1487;51.470;6.938;2023-08-17T06:18:36;17.30;99.90
2955;DHT22;1487;51.470;6.938;2023-08-17T06:21:03;17.40;99.90
2955;DHT22;1487;51.470;6.938;2023-08-17T06:23:30;17.40;99.90
2955;DHT22;1487;51.470;6.938;2023-08-17T06:25:57;17.40;99.90
2955;DHT22;1487;51.470;6.938;2023-08-17T06:28:25;17.30;99.90
2955;DHT22;1487;51.470;6.938;2023-08-17T06:30:52;17.40;99.90
2955;DHT22;1487;51.470;6.938;2023-08-17T06:33:19;17.40;99.90
2955;DHT22;1487;51.470;6.938;2023-08-17T06:35:46;17.40;99.90
2955;DHT22;1487;51.470;6.938;2023-08-17T06:38:13;17.40;99.90
2955;DHT22;1487;51.470;6.938;2023-08-17T06:40:40;17.40;99.90
2955;DHT22;1487;51.470;6.938;2023-08-17T06:43:07;17.50;99.90
2955;DHT22;1487;51.470;6.938;2023-08-17T06:45:35;17.40;99.90
2955;DHT22;1487;51.470;6.938;2023-08-17T06:48:02;17.40;99.90
2955;DHT22;1487;51.470;6.938;2023-08-17T06:50:29;17.50;99.90
2955;DHT22;1487;51.470;6.938;2023-08-17T06:52:55;17.60;99.90
2955;DHT22;1487;51.470;6.938;2023-08-17T06:55:22;17.50;99.90
2955;DHT22;1487;51.470;6.938;2023-08-17T06:57:50;17.40;99.90
2955;DHT22;1487;51.470;6.938;2023-08-17T07:00:17;17.40;99.90
2955;DHT22;1487;51.470;6.938;2023-08-17T07:02:47;17.40;99.90
2955;DHT22;1487;51.470;6.938;2023-08-17T07:05:14;17.30;99.90
2955;DHT22;1487;51.470;6.938;2023-08-17T07:07:41;17.20;99.90
2955;DHT22;1487;51.470;6.938;2023-08-17T07:10:08;17.30;99.90
2955;DHT22;1487;51.470;6.938;2023-08-17T07:12:36;17.50;99.90
2955;DHT22;1487;51.470;6.938;2023-08-17T07:15:03;17.50;99.90
2955;DHT22;1487;51.470;6.938;2023-08-17T07:17:30;17.60;99.90
2955;DHT22;1487;51.470;6.938;2023-08-17T07:19:58;17.60;99.90
2955;DHT22;1487;51.470;6.938;2023-08-17T07:22:25;17.70;99.90
2955;DHT22;1487;51.470;6.938;2023-08-17T07:24:52;17.70;99.90
2955;DHT22;1487;51.470;6.938;2023-08-17T07:27:18;17.80;99.90
2955;DHT22;1487;51.470;6.938;2023-08-17T07:29:45;17.90;99.90
2955;DHT22;1487;51.470;6.938;2023-08-17T07:32:12;18.00;99.90
2955;DHT22;1487;51.470;6.938;2023-08-17T07:34:39;18.10;99.90
2955;DHT22;1487;51.470;6.938;2023-08-17T07:37:07;18.00;99.90
2955;DHT22;1487;51.470;6.938;2023-08-17T07:39:33;17.90;99.90
2955;DHT22;1487;51.470;6.938;2023-08-17T07:42:00;18.00;99.90
2955;DHT22;1487;51.470;6.938;2023-08-17T07:44:27;18.10;99.90
2955;DHT22;1487;51.470;6.938;2023-08-17T07:46:57;18.10;99.90
2955;DHT22;1487;51.470;6.938;2023-08-17T07:49:24;18.20;99.90
2955;DHT22;1487;51.470;6.938;2023-08-17T07:51:51;18.30;99.90
2955;DHT22;1487;51.470;6.938;2023-08-17T07:54:19;18.30;99.90
2955;DHT22;1487;51.470;6.938;2023-08-17T07:56:46;18.40;99.90
2955;DHT22;1487;51.470;6.938;2023-08-17T07:59:13;18.50;99.90
2955;DHT22;1487;51.470;6.938;2023-08-17T08:01:39;18.50;99.90
2955;DHT22;1487;51.470;6.938;2023-08-17T08:04:07;18.60;99.90
2955;DHT22;1487;51.470;6.938;2023-08-17T08:06:34;18.60;99.90
2955;DHT22;1487;51.470;6.938;2023-08-17T08:09:01;18.80;99.90
2955;DHT22;1487;51.470;6.938;2023-08-17T08:11:29;18.90;99.90
2955;DHT22;1487;51.470;6.938;2023-08-17T08:13:57;19.00;99.90
2955;DHT22;1487;51.470;6.938;2023-08-17T08:16:23;19.00;99.90
2955;DHT22;1487;51.470;6.938;2023-08-17T08:18:50;19.10;99.90
2955;DHT22;1487;51.470;6.938;2023-08-17T08:21:17;19.10;99.90
2955;DHT22;1487;51.470;6.938;2023-08-17T08:23:44;19.20;99.90
2955;DHT22;1487;51.470;6.938;2023-08-17T08:26:10;19.20;99.90
2955;DHT22;1487;51.470;6.938;2023-08-17T08:28:39;19.20;99.90
2955;DHT22;1487;51.470;6.938;2023-08-17T08:31:06;19.20;99.90
2955;DHT22;1487;51.470;6.938;2023-08-17T08:33:33;19.10;99.90
2955;DHT22;1487;51.470;6.938;2023-08-17T08:35:59;19.20;99.90
2955;DHT22;1487;51.470;6.938;2023-08-17T08:38:27;19.20;99.90
2955;DHT22;1487;51.470;6.938;2023-08-17T08:40:54;19.30;99.90
2955;DHT22;1487;51.470;6.938;2023-08-17T08:43:21;19.10;99.90
2955;DHT22;1487;51.470;6.938;2023-08-17T08:45:51;19.00;99.90
2955;DHT22;1487;51.470;6.938;2023-08-17T08:48:18;19.10;99.90
2955;DHT22;1487;51.470;6.938;2023-08-17T08:50:46;19.10;99.90
2955;DHT22;1487;51.470;6.938;2023-08-17T08:53:15;19.10;99.90
2955;DHT22;1487;51.470;6.938;2023-08-17T08:55:46;19.00;99.90
2955;DHT22;1487;51.470;6.938;2023-08-17T08:58:15;19.00;99.90
2955;DHT22;1487;51.470;6.938;2023-08-17T09:00:45;19.00;99.90
2955;DHT22;1487;51.470;6.938;2023-08-17T09:03:14;19.00;99.90
2955;DHT22;1487;51.470;6.938;2023-08-17T09:05:42;19.00;99.90
2955;DHT22;1487;51.470;6.938;2023-08-17T09:08:12;19.10;99.90
2955;DHT22;1487;51.470;6.938;2023-08-17T09:10:39;19.20;99.90
2955;DHT22;1487;51.470;6.938;2023-08-17T09:13:07;19.30;99.90
2955;DHT22;1487;51.470;6.938;2023-08-17T09:15:34;19.30;99.90
2955;DHT22;1487;51.470;6.938;2023-08-17T09:18:01;19.30;99.90
2955;DHT22;1487;51.470;6.938;2023-08-17T09:20:39;19.30;99.90
2955;DHT22;1487;51.470;6.938;2023-08-17T09:23:11;19.40;99.90
2955;DHT22;1487;51.470;6.938;2023-08-17T09:25:39;19.40;99.90
2955;DHT22;1487;51.470;6.938;2023-08-17T09:28:07;19.30;99.90
2955;DHT22;1487;51.470;6.938;2023-08-17T09:30:49;19.40;99.90
2955;DHT22;1487;51.470;6.938;2023-08-17T09:33:16;19.40;99.90
2955;DHT22;1487;51.470;6.938;2023-08-17T09:35:44;19.50;99.90
2955;DHT22;1487;51.470;6.938;2023-08-17T09:38:11;19.60;99.90
2955;DHT22;1487;51.470;6.938;2023-08-17T09:40:38;19.80;99.90
2955;DHT22;1487;51.470;6.938;2023-08-17T09:43:05;19.90;99.90
2955;DHT22;1487;51.470;6.938;2023-08-17T09:45:32;20.00;99.90
2955;DHT22;1487;51.470;6.938;2023-08-17T09:47:59;20.10;99.90
2955;DHT22;1487;51.470;6.938;2023-08-17T09:50:26;20.00;99.90
2955;DHT22;1487;51.470;6.938;2023-08-17T09:52:55;20.10;99.90
2955;DHT22;1487;51.470;6.938;2023-08-17T09:55:22;20.10;99.90
2955;DHT22;1487;51.470;6.938;2023-08-17T09:57:49;20.20;99.90
2955;DHT22;1487;51.470;6.938;2023-08-17T10:00:17;20.20;99.90
2955;DHT22;1487;51.470;6.938;2023-08-17T10:02:44;20.30;99.90
2955;DHT22;1487;51.470;6.938;2023-08-17T10:05:12;20.30;99.90
2955;DHT22;1487;51.470;6.938;2023-08-17T10:07:43;20.20;99.90
2955;DHT22;1487;51.470;6.938;2023-08-17T10:10:12;20.20;99.90
2955;DHT22;1487;51.470;6.938;2023-08-17T10:12:45;20.20;99.90
2955;DHT22;1487;51.470;6.938;2023-08-17T10:15:16;20.30;99.90
2955;DHT22;1487;51.470;6.938;2023-08-17T10:17:49;20.40;99.90
2955;DHT22;1487;51.470;6.938;2023-08-17T10:20:18;20.30;99.90
2955;DHT22;1487;51.470;6.938;2023-08-17T10:22:51;20.30;99.90
2955;DHT22;1487;51.470;6.938;2023-08-17T10:25:20;20.40;99.90
2955;DHT22;1487;51.470;6.938;2023-08-17T10:27:49;20.30;99.90
2955;DHT22;1487;51.470;6.938;2023-08-17T10:30:17;20.40;99.90
2955;DHT22;1487;51.470;6.938;2023-08-17T10:32:44;20.30;99.90
2955;DHT22;1487;51.470;6.938;2023-08-17T10:35:13;20.20;99.90
2955;DHT22;1487;51.470;6.938;2023-08-17T10:37:40;20.40;99.90
2955;DHT22;1487;51.470;6.938;2023-08-17T10:40:08;20.50;99.90
2955;DHT22;1487;51.470;6.938;2023-08-17T10:42:37;20.70;99.90
2955;DHT22;1487;51.470;6.938;2023-08-17T10:45:26;20.90;99.90
2955;DHT22;1487;51.470;6.938;2023-08-17T10:48:00;21.00;99.90
2955;DHT22;1487;51.470;6.938;2023-08-17T10:50:27;21.00;99.90
2955;DHT22;1487;51.470;6.938;2023-08-17T10:52:54;21.10;99.90
2955;DHT22;1487;51.470;6.938;2023-08-17T10:55:36;21.30;99.90
2955;DHT22;1487;51.470;6.938;2023-08-17T10:58:05;21.30;99.90
2955;DHT22;1487;51.470;6.938;2023-08-17T11:00:34;21.40;99.90
2955;DHT22;1487;51.470;6.938;2023-08-17T11:03:04;21.50;99.90
2955;DHT22;1487;51.470;6.938;2023-08-17T11:05:40;21.60;99.90
2955;DHT22;1487;51.470;6.938;2023-08-17T11:08:09;21.40;99.90
2955;DHT22;1487;51.470;6.938;2023-08-17T11:10:36;21.70;99.90
2955;DHT22;1487;51.470;6.938;2023-08-17T11:13:05;22.00;99.90
2955;DHT22;1487;51.470;6.938;2023-08-17T11:15:37;22.40;99.90
2955;DHT22;1487;51.470;6.938;2023-08-17T11:18:08;22.60;99.90
2955;DHT22;1487;51.470;6.938;2023-08-17T11:20:35;22.50;99.90
2955;DHT22;1487;51.470;6.938;2023-08-17T11:23:04;22.70;99.90
2955;DHT22;1487;51.470;6.938;2023-08-17T11:25:32;22.90;99.90
2955;DHT22;1487;51.470;6.938;2023-08-17T11:28:00;23.00;99.90
2955;DHT22;1487;51.470;6.938;2023-08-17T11:30:29;22.90;99.90
2955;DHT22;1487;51.470;6.938;2023-08-17T11:32:56;22.90;99.90
2955;DHT22;1487;51.470;6.938;2023-08-17T11:35:24;22.70;99.90
2955;DHT22;1487;51.470;6.938;2023-08-17T11:37:51;22.70;99.90
2955;DHT22;1487;51.470;6.938;2023-08-17T11:40:18;22.60;99.90
2955;DHT22;1487;51.470;6.938;2023-08-17T11:42:45;22.50;99.90
2955;DHT22;1487;51.470;6.938;2023-08-17T11:45:13;22.60;99.90
2955;DHT22;1487;51.470;6.938;2023-08-17T11:47:42;22.60;99.90
2955;DHT22;1487;51.470;6.938;2023-08-17T11:50:10;22.50;99.90
2955;DHT22;1487;51.470;6.938;2023-08-17T11:52:37;22.30;99.90
2955;DHT22;1487;51.470;6.938;2023-08-17T11:55:05;22.10;99.90
2955;DHT22;1487;51.470;6.938;2023-08-17T11:57:34;22.00;99.90
2955;DHT22;1487;51.470;6.938;2023-08-17T12:00:01;21.90;99.90
2955;DHT22;1487;51.470;6.938;2023-08-17T12:02:30;22.00;99.90
2955;DHT22;1487;51.470;6.938;2023-08-17T12:04:58;22.10;99.90
2955;DHT22;1487;51.470;6.938;2023-08-17T12:07:30;22.10;99.90
2955;DHT22;1487;51.470;6.938;2023-08-17T12:09:57;22.10;99.90
2955;DHT22;1487;51.470;6.938;2023-08-17T12:12:23;22.10;99.90
2955;DHT22;1487;51.470;6.938;2023-08-17T12:14:50;22.00;99.90
2955;DHT22;1487;51.470;6.938;2023-08-17T12:17:18;22.10;99.90
2955;DHT22;1487;51.470;6.938;2023-08-17T12:19:49;22.10;99.90
2955;DHT22;1487;51.470;6.938;2023-08-17T12:22:17;22.10;99.90
2955;DHT22;1487;51.470;6.938;2023-08-17T12:24:44;22.10;99.90
2955;DHT22;1487;51.470;6.938;2023-08-17T12:27:11;22.20;99.90
2955;DHT22;1487;51.470;6.938;2023-08-17T12:29:46;22.20;99.90
2955;DHT22;1487;51.470;6.938;2023-08-17T12:32:14;22.10;99.90
2955;DHT22;1487;51.470;6.938;2023-08-17T12:34:41;22.10;99.90
2955;DHT22;1487;51.470;6.938;2023-08-17T12:37:08;22.00;99.90
2955;DHT22;1487;51.470;6.938;2023-08-17T12:39:37;21.80;99.90
2955;DHT22;1487;51.470;6.938;2023-08-17T12:42:05;21.90;99.90
2955;DHT22;1487;51.470;6.938;2023-08-17T12:44:32;22.00;99.90
2955;DHT22;1487;51.470;6.938;2023-08-17T12:46:59;22.00;99.90
2955;DHT22;1487;51.470;6.938;2023-08-17T12:49:26;21.90;99.90
2955;DHT22;1487;51.470;6.938;2023-08-17T12:51:53;21.90;99.90
2955;DHT22;1487;51.470;6.938;2023-08-17T12:54:19;21.90;99.90
2955;DHT22;1487;51.470;6.938;2023-08-17T12:56:48;21.90;99.90
2955;DHT22;1487;51.470;6.938;2023-08-17T12:59:14;22.00;99.90
2955;DHT22;1487;51.470;6.938;2023-08-17T13:01:41;21.90;99.90
2955;DHT22;1487;51.470;6.938;2023-08-17T13:04:08;21.90;99.90
2955;DHT22;1487;51.470;6.938;2023-08-17T13:06:35;21.90;99.90
2955;DHT22;1487;51.470;6.938;2023-08-17T13:09:02;21.90;99.90
2955;DHT22;1487;51.470;6.938;2023-08-17T13:11:29;21.80;99.90
2955;DHT22;1487;51.470;6.938;2023-08-17T13:13:57;21.60;99.90
2955;DHT22;1487;51.470;6.938;2023-08-17T13:16:24;21.60;99.90
2955;DHT22;1487;51.470;6.938;2023-08-17T13:18:50;21.50;99.90
2955;DHT22;1487;51.470;6.938;2023-08-17T13:21:17;21.60;99.90
2955;DHT22;1487;51.470;6.938;2023-08-17T13:23:45;21.60;99.90
2955;DHT22;1487;51.470;6.938;2023-08-17T13:26:12;21.50;99.90
2955;DHT22;1487;51.470;6.938;2023-08-17T13:28:39;21.60;99.90
2955;DHT22;1487;51.470;6.938;2023-08-17T13:31:07;21.60;99.90
2955;DHT22;1487;51.470;6.938;2023-08-17T13:33:34;21.80;99.90
2955;DHT22;1487;51.470;6.938;2023-08-17T13:36:00;21.90;99.90
2955;DHT22;1487;51.470;6.938;2023-08-17T13:38:28;22.00;99.90
2955;DHT22;1487;51.470;6.938;2023-08-17T13:40:55;22.00;99.90
2955;DHT22;1487;51.470;6.938;2023-08-17T13:43:22;22.20;99.90
2955;DHT22;1487;51.470;6.938;2023-08-17T13:45:48;22.20;99.90
2955;DHT22;1487;51.470;6.938;2023-08-17T13:48:17;22.40;99.90
2955;DHT22;1487;51.470;6.938;2023-08-17T13:50:43;22.40;99.90
2955;DHT22;1487;51.470;6.938;2023-08-17T13:53:10;22.30;99.90
2955;DHT22;1487;51.470;6.938;2023-08-17T13:55:37;22.40;99.90
2955;DHT22;1487;51.470;6.938;2023-08-17T13:58:04;22.40;99.90
2955;DHT22;1487;51.470;6.938;2023-08-17T14:00:31;22.50;99.90
2955;DHT22;1487;51.470;6.938;2023-08-17T14:02:58;22.40;99.90
2955;DHT22;1487;51.470;6.938;2023-08-17T14:05:26;22.30;99.90
2955;DHT22;1487;51.470;6.938;2023-08-17T14:07:53;22.30;99.90
2955;DHT22;1487;51.470;6.938;2023-08-17T14:10:20;22.20;99.90
2955;DHT22;1487;51.470;6.938;2023-08-17T14:12:47;22.00;99.90
2955;DHT22;1487;51.470;6.938;2023-08-17T14:15:17;22.00;99.90
2955;DHT22;1487;51.470;6.938;2023-08-17T14:17:44;22.00;99.90
2955;DHT22;1487;51.470;6.938;2023-08-17T14:20:11;21.90;99.90
2955;DHT22;1487;51.470;6.938;2023-08-17T14:22:39;21.70;99.90
2955;DHT22;1487;51.470;6.938;2023-08-17T14:25:06;21.70;99.90
2955;DHT22;1487;51.470;6.938;2023-08-17T14:27:33;21.70;99.90
2955;DHT22;1487;51.470;6.938;2023-08-17T14:30:00;21.70;99.90
2955;DHT22;1487;51.470;6.938;2023-08-17T14:32:27;21.70;99.90
2955;DHT22;1487;51.470;6.938;2023-08-17T14:34:55;21.90;99.90
2955;DHT22;1487;51.470;6.938;2023-08-17T14:37:39;21.90;99.90
2955;DHT22;1487;51.470;6.938;2023-08-17T14:40:07;22.10;99.90
2955;DHT22;1487;51.470;6.938;2023-08-17T14:42:34;22.30;99.90
2955;DHT22;1487;51.470;6.938;2023-08-17T14:45:01;22.40;99.90
2955;DHT22;1487;51.470;6.938;2023-08-17T14:47:28;22.40;99.90
2955;DHT22;1487;51.470;6.938;2023-08-17T14:49:55;22.40;99.90
2955;DHT22;1487;51.470;6.938;2023-08-17T14:52:22;22.40;99.90
2955;DHT22;1487;51.470;6.938;2023-08-17T14:54:50;22.40;99.90
2955;DHT22;1487;51.470;6.938;2023-08-17T14:57:17;22.40;99.90
2955;DHT22;1487;51.470;6.938;2023-08-17T14:59:44;22.30;99.90
2955;DHT22;1487;51.470;6.938;2023-08-17T15:02:11;22.20;99.90
2955;DHT22;1487;51.470;6.938;2023-08-17T15:04:39;22.20;99.90
2955;DHT22;1487;51.470;6.938;2023-08-17T15:07:06;22.10;99.90
2955;DHT22;1487;51.470;6.938;2023-08-17T15:09:36;22.00;99.90
2955;DHT22;1487;51.470;6.938;2023-08-17T15:12:05;21.90;99.90
2955;DHT22;1487;51.470;6.938;2023-08-17T15:14:32;21.80;99.90
2955;DHT22;1487;51.470;6.938;2023-08-17T15:16:59;21.70;99.90
2955;DHT22;1487;51.470;6.938;2023-08-17T15:19:26;21.70;99.90
2955;DHT22;1487;51.470;6.938;2023-08-17T15:21:53;21.60;99.90
2955;DHT22;1487;51.470;6.938;2023-08-17T15:24:19;21.60;99.90
2955;DHT22;1487;51.470;6.938;2023-08-17T15:26:46;21.50;99.90
2955;DHT22;1487;51.470;6.938;2023-08-17T15:29:14;21.50;99.90
2955;DHT22;1487;51.470;6.938;2023-08-17T15:31:41;21.50;99.90
2955;DHT22;1487;51.470;6.938;2023-08-17T15:34:08;21.40;99.90
2955;DHT22;1487;51.470;6.938;2023-08-17T15:36:35;21.40;99.90
2955;DHT22;1487;51.470;6.938;2023-08-17T15:39:02;21.40;99.90
2955;DHT22;1487;51.470;6.938;2023-08-17T15:41:29;21.40;99.90
2955;DHT22;1487;51.470;6.938;2023-08-17T15:43:55;21.50;99.90
2955;DHT22;1487;51.470;6.938;2023-08-17T15:46:24;21.50;99.90
2955;DHT22;1487;51.470;6.938;2023-08-17T15:48:50;21.70;99.90
2955;DHT22;1487;51.470;6.938;2023-08-17T15:51:18;21.80;99.90
2955;DHT22;1487;51.470;6.938;2023-08-17T15:53:44;21.90;99.90
2955;DHT22;1487;51.470;6.938;2023-08-17T15:56:11;21.90;99.90
2955;DHT22;1487;51.470;6.938;2023-08-17T15:58:39;21.90;99.90
2955;DHT22;1487;51.470;6.938;2023-08-17T16:01:06;22.00;99.90
2955;DHT22;1487;51.470;6.938;2023-08-17T16:03:35;21.90;99.90
2955;DHT22;1487;51.470;6.938;2023-08-17T16:06:02;21.90;99.90
2955;DHT22;1487;51.470;6.938;2023-08-17T16:08:29;21.90;99.90
2955;DHT22;1487;51.470;6.938;2023-08-17T16:10:55;22.00;99.90